sensor_id;sensor_type;location;lat;lon;timestamp;temperature;humidity
13697;DHT22;6920;50.080;8.226;2023-07-09T00:00:22;22.50;93.10
13697;DHT22;6920;50.080;8.226;2023-07-09T00:05:17;22.30;93.50
13697;DHT22;6920;50.080;8.226;2023-07-09T00:07:45;22.30;93.80
13697;DHT22;6920;50.080;8.226;2023-07-09T00:10:18;22.30;93.60
13697;DHT22;6920;50.080;8.226;2023-07-09T00:12:54;22.20;94.00
13697;DHT22;6920;50.080;8.226;2023-07-09T00:15:54;22.10;94.40
13697;DHT22;6920;50.080;8.226;2023-07-09T00:18:30;22.00;94.90
13697;DHT22;6920;50.080;8.226;2023-07-09T00:26:02;21.90;95.30
13697;DHT22;6920;50.080;8.226;2023-07-09T00:28:30;22.00;95.20
13697;DHT22;6920;50.080;8.226;2023-07-09T00:31:09;21.90;95.50
13697;DHT22;6920;50.080;8.226;2023-07-09T00:36:14;21.70;95.90
13697;DHT22;6920;50.080;8.226;2023-07-09T00:38:45;21.80;96.00
13697;DHT22;6920;50.080;8.226;2023-07-09T00:41:17;21.80;96.20
13697;DHT22;6920;50.080;8.226;2023-07-09T00:43:47;21.90;96.40
13697;DHT22;6920;50.080;8.226;2023-07-09T00:49:35;21.60;97.10
13697;DHT22;6920;50.080;8.226;2023-07-09T00:52:22;21.50;97.30
13697;DHT22;6920;50.080;8.226;2023-07-09T00:54:53;21.40;97.70
13697;DHT22;6920;50.080;8.226;2023-07-09T00:57:24;21.50;97.50
13697;DHT22;6920;50.080;8.226;2023-07-09T00:59:56;21.30;97.70
13697;DHT22;6920;50.080;8.226;2023-07-09T01:02:25;21.30;97.80
13697;DHT22;6920;50.080;8.226;2023-07-09T01:04:56;21.40;97.50
13697;DHT22;6920;50.080;8.226;2023-07-09T01:07:27;21.40;97.70
13697;DHT22;6920;50.080;8.226;2023-07-09T01:09:58;21.40;97.90
13697;DHT22;6920;50.080;8.226;2023-07-09T01:12:29;21.40;98.20
13697;DHT22;6920;50.080;8.226;2023-07-09T01:15:00;21.40;98.60
13697;DHT22;6920;50.080;8.226;2023-07-09T01:17:28;21.30;97.80
13697;DHT22;6920;50.080;8.226;2023-07-09T01:20:00;21.30;98.40
13697;DHT22;6920;50.080;8.226;2023-07-09T01:22:31;21.00;98.80
13697;DHT22;6920;50.080;8.226;2023-07-09T01:25:06;21.30;98.70
13697;DHT22;6920;50.080;8.226;2023-07-09T01:27:39;21.20;98.50
13697;DHT22;6920;50.080;8.226;2023-07-09T01:30:09;21.10;99.10
13697;DHT22;6920;50.080;8.226;2023-07-09T01:32:41;21.20;99.40
13697;DHT22;6920;50.080;8.226;2023-07-09T01:35:14;21.00;99.20
13697;DHT22;6920;50.080;8.226;2023-07-09T01:37:47;21.00;99.60
13697;DHT22;6920;50.080;8.226;2023-07-09T01:40:17;21.10;99.30
13697;DHT22;6920;50.080;8.226;2023-07-09T01:42:45;21.10;99.40
13697;DHT22;6920;50.080;8.226;2023-07-09T01:45:13;21.00;99.40
13697;DHT22;6920;50.080;8.226;2023-07-09T01:47:42;20.90;99.80
13697;DHT22;6920;50.080;8.226;2023-07-09T01:50:13;20.90;99.70
13697;DHT22;6920;50.080;8.226;2023-07-09T01:52:47;21.00;99.50
13697;DHT22;6920;50.080;8.226;2023-07-09T01:55:17;21.10;99.50
13697;DHT22;6920;50.080;8.226;2023-07-09T01:57:46;21.00;99.40
13697;DHT22;6920;50.080;8.226;2023-07-09T02:00:21;21.00;99.40
13697;DHT22;6920;50.080;8.226;2023-07-09T02:02:48;21.10;99.50
13697;DHT22;6920;50.080;8.226;2023-07-09T02:05:17;20.90;99.90
13697;DHT22;6920;50.080;8.226;2023-07-09T02:07:47;20.80;99.90
13697;DHT22;6920;50.080;8.226;2023-07-09T02:10:18;20.70;99.90
13697;DHT22;6920;50.080;8.226;2023-07-09T02:12:46;20.60;99.90
13697;DHT22;6920;50.080;8.226;2023-07-09T02:15:15;20.60;99.90
13697;DHT22;6920;50.080;8.226;2023-07-09T02:17:46;20.60;99.90
13697;DHT22;6920;50.080;8.226;2023-07-09T02:20:15;20.40;99.90
13697;DHT22;6920;50.080;8.226;2023-07-09T02:22:44;20.30;99.90
13697;DHT22;6920;50.080;8.226;2023-07-09T02:25:16;20.10;99.90
13697;DHT22;6920;50.080;8.226;2023-07-09T02:30:11;20.20;99.90
13697;DHT22;6920;50.080;8.226;2023-07-09T02:32:40;20.20;99.90
13697;DHT22;6920;50.080;8.226;2023-07-09T02:35:07;20.30;99.90
13697;DHT22;6920;50.080;8.226;2023-07-09T02:37:34;20.30;99.90
13697;DHT22;6920;50.080;8.226;2023-07-09T02:42:31;20.20;99.90
13697;DHT22;6920;50.080;8.226;2023-07-09T02:44:58;20.30;99.90
13697;DHT22;6920;50.080;8.226;2023-07-09T02:47:28;20.40;99.90
13697;DHT22;6920;50.080;8.226;2023-07-09T02:49:56;20.30;99.90
13697;DHT22;6920;50.080;8.226;2023-07-09T02:52:25;20.40;99.90
13697;DHT22;6920;50.080;8.226;2023-07-09T02:54:52;20.30;99.90
13697;DHT22;6920;50.080;8.226;2023-07-09T02:57:19;20.10;99.90
13697;DHT22;6920;50.080;8.226;2023-07-09T02:59:49;20.00;99.90
13697;DHT22;6920;50.080;8.226;2023-07-09T03:02:16;19.90;99.90
13697;DHT22;6920;50.080;8.226;2023-07-09T03:04:43;19.90;99.90
13697;DHT22;6920;50.080;8.226;2023-07-09T03:07:10;19.80;99.90
13697;DHT22;6920;50.080;8.226;2023-07-09T03:09:45;19.90;99.90
13697;DHT22;6920;50.080;8.226;2023-07-09T03:12:12;20.00;99.90
13697;DHT22;6920;50.080;8.226;2023-07-09T03:14:39;20.20;99.90
13697;DHT22;6920;50.080;8.226;2023-07-09T03:17:08;20.30;99.90
13697;DHT22;6920;50.080;8.226;2023-07-09T03:19:35;20.20;99.90
13697;DHT22;6920;50.080;8.226;2023-07-09T03:22:02;20.30;99.90
13697;DHT22;6920;50.080;8.226;2023-07-09T03:24:29;20.40;99.90
13697;DHT22;6920;50.080;8.226;2023-07-09T03:26:57;20.40;99.90
13697;DHT22;6920;50.080;8.226;2023-07-09T03:29:24;20.20;99.90
13697;DHT22;6920;50.080;8.226;2023-07-09T03:31:51;20.10;99.90
13697;DHT22;6920;50.080;8.226;2023-07-09T03:34:19;20.10;99.90
13697;DHT22;6920;50.080;8.226;2023-07-09T03:39:15;19.90;99.90
13697;DHT22;6920;50.080;8.226;2023-07-09T03:41:44;19.90;99.90
13697;DHT22;6920;50.080;8.226;2023-07-09T03:44:11;20.00;99.90
13697;DHT22;6920;50.080;8.226;2023-07-09T03:46:40;20.00;99.90
13697;DHT22;6920;50.080;8.226;2023-07-09T03:51:46;19.90;99.90
13697;DHT22;6920;50.080;8.226;2023-07-09T03:54:18;19.80;99.90
13697;DHT22;6920;50.080;8.226;2023-07-09T03:59:14;19.80;99.90
13697;DHT22;6920;50.080;8.226;2023-07-09T04:01:41;19.90;99.90
13697;DHT22;6920;50.080;8.226;2023-07-09T04:04:12;19.90;99.90
13697;DHT22;6920;50.080;8.226;2023-07-09T04:06:39;20.00;99.90
13697;DHT22;6920;50.080;8.226;2023-07-09T04:09:08;20.00;99.90
13697;DHT22;6920;50.080;8.226;2023-07-09T04:11:43;20.10;99.90
13697;DHT22;6920;50.080;8.226;2023-07-09T04:14:10;20.10;99.90
13697;DHT22;6920;50.080;8.226;2023-07-09T04:16:40;20.20;99.90
13697;DHT22;6920;50.080;8.226;2023-07-09T04:19:09;20.20;99.90
13697;DHT22;6920;50.080;8.226;2023-07-09T04:21:37;20.30;99.90
13697;DHT22;6920;50.080;8.226;2023-07-09T04:24:08;20.40;99.90
13697;DHT22;6920;50.080;8.226;2023-07-09T04:26:35;20.40;99.90
13697;DHT22;6920;50.080;8.226;2023-07-09T04:29:05;20.40;99.90
13697;DHT22;6920;50.080;8.226;2023-07-09T04:31:33;20.30;99.90
13697;DHT22;6920;50.080;8.226;2023-07-09T04:34:00;20.20;99.90
13697;DHT22;6920;50.080;8.226;2023-07-09T04:36:28;20.00;99.90
13697;DHT22;6920;50.080;8.226;2023-07-09T04:38:55;20.00;99.90
13697;DHT22;6920;50.080;8.226;2023-07-09T04:41:24;20.10;99.90
13697;DHT22;6920;50.080;8.226;2023-07-09T04:43:51;20.30;99.90
13697;DHT22;6920;50.080;8.226;2023-07-09T04:46:19;20.30;99.90
13697;DHT22;6920;50.080;8.226;2023-07-09T04:48:46;20.40;99.90
13697;DHT22;6920;50.080;8.226;2023-07-09T04:51:15;20.40;99.90
13697;DHT22;6920;50.080;8.226;2023-07-09T04:53:43;20.30;99.90
13697;DHT22;6920;50.080;8.226;2023-07-09T04:56:10;20.30;99.90
13697;DHT22;6920;50.080;8.226;2023-07-09T04:58:39;20.20;99.90
13697;DHT22;6920;50.080;8.226;2023-07-09T05:01:07;20.40;99.90
13697;DHT22;6920;50.080;8.226;2023-07-09T05:03:34;20.50;99.90
13697;DHT22;6920;50.080;8.226;2023-07-09T05:06:02;20.50;99.90
13697;DHT22;6920;50.080;8.226;2023-07-09T05:08:30;20.70;99.90
13697;DHT22;6920;50.080;8.226;2023-07-09T05:11:00;20.80;99.90
13697;DHT22;6920;50.080;8.226;2023-07-09T05:13:27;20.80;99.90
13697;DHT22;6920;50.080;8.226;2023-07-09T05:15:57;21.00;99.90
13697;DHT22;6920;50.080;8.226;2023-07-09T05:18:24;21.00;99.90
13697;DHT22;6920;50.080;8.226;2023-07-09T05:20:51;21.00;99.90
13697;DHT22;6920;50.080;8.226;2023-07-09T05:23:19;21.10;99.90
13697;DHT22;6920;50.080;8.226;2023-07-09T05:25:46;21.20;99.90
13697;DHT22;6920;50.080;8.226;2023-07-09T05:28:14;21.40;99.90
13697;DHT22;6920;50.080;8.226;2023-07-09T05:31:07;21.40;99.90
13697;DHT22;6920;50.080;8.226;2023-07-09T05:33:34;21.50;99.90
13697;DHT22;6920;50.080;8.226;2023-07-09T05:36:02;21.50;99.90
13697;DHT22;6920;50.080;8.226;2023-07-09T05:38:41;21.70;99.90
13697;DHT22;6920;50.080;8.226;2023-07-09T05:41:13;21.70;99.90
13697;DHT22;6920;50.080;8.226;2023-07-09T05:43:44;21.90;99.90
13697;DHT22;6920;50.080;8.226;2023-07-09T05:46:13;22.00;99.90
13697;DHT22;6920;50.080;8.226;2023-07-09T05:48:42;22.10;99.90
13697;DHT22;6920;50.080;8.226;2023-07-09T05:51:10;22.20;99.90
13697;DHT22;6920;50.080;8.226;2023-07-09T05:53:40;22.20;99.90
13697;DHT22;6920;50.080;8.226;2023-07-09T05:58:37;22.50;99.90
13697;DHT22;6920;50.080;8.226;2023-07-09T06:01:09;22.60;99.90
13697;DHT22;6920;50.080;8.226;2023-07-09T06:03:41;22.80;99.90
13697;DHT22;6920;50.080;8.226;2023-07-09T06:06:11;22.90;99.90
13697;DHT22;6920;50.080;8.226;2023-07-09T06:08:45;23.10;99.90
13697;DHT22;6920;50.080;8.226;2023-07-09T06:11:16;23.30;99.90
13697;DHT22;6920;50.080;8.226;2023-07-09T06:13:46;23.40;99.90
13697;DHT22;6920;50.080;8.226;2023-07-09T06:16:15;23.60;99.90
13697;DHT22;6920;50.080;8.226;2023-07-09T06:18:57;23.80;99.90
13697;DHT22;6920;50.080;8.226;2023-07-09T06:21:25;24.00;99.90
13697;DHT22;6920;50.080;8.226;2023-07-09T06:23:52;24.30;99.90
13697;DHT22;6920;50.080;8.226;2023-07-09T06:26:19;24.70;99.80
13697;DHT22;6920;50.080;8.226;2023-07-09T06:28:47;25.10;99.10
13697;DHT22;6920;50.080;8.226;2023-07-09T06:34:40;26.00;98.00
13697;DHT22;6920;50.080;8.226;2023-07-09T06:39:35;26.90;95.90
13697;DHT22;6920;50.080;8.226;2023-07-09T06:42:03;27.40;94.80
13697;DHT22;6920;50.080;8.226;2023-07-09T06:44:38;27.70;94.50
13697;DHT22;6920;50.080;8.226;2023-07-09T06:47:47;27.90;94.10
13697;DHT22;6920;50.080;8.226;2023-07-09T06:50:34;27.80;94.30
13697;DHT22;6920;50.080;8.226;2023-07-09T06:53:03;27.70;94.40
13697;DHT22;6920;50.080;8.226;2023-07-09T06:55:31;28.10;94.30
13697;DHT22;6920;50.080;8.226;2023-07-09T06:58:04;28.40;93.60
13697;DHT22;6920;50.080;8.226;2023-07-09T07:00:31;28.40;93.70
13697;DHT22;6920;50.080;8.226;2023-07-09T07:03:00;28.50;93.40
13697;DHT22;6920;50.080;8.226;2023-07-09T07:05:29;28.50;93.00
13697;DHT22;6920;50.080;8.226;2023-07-09T07:08:00;28.60;93.00
13697;DHT22;6920;50.080;8.226;2023-07-09T07:10:30;28.40;93.00
13697;DHT22;6920;50.080;8.226;2023-07-09T07:13:00;28.50;93.20
13697;DHT22;6920;50.080;8.226;2023-07-09T07:15:28;28.40;93.20
13697;DHT22;6920;50.080;8.226;2023-07-09T07:20:26;28.70;93.30
13697;DHT22;6920;50.080;8.226;2023-07-09T07:22:55;29.20;93.10
13697;DHT22;6920;50.080;8.226;2023-07-09T07:25:27;29.40;92.50
13697;DHT22;6920;50.080;8.226;2023-07-09T07:28:01;29.30;92.70
13697;DHT22;6920;50.080;8.226;2023-07-09T07:30:30;28.80;93.00
13697;DHT22;6920;50.080;8.226;2023-07-09T07:32:58;29.10;93.60
13697;DHT22;6920;50.080;8.226;2023-07-09T07:35:28;29.40;93.00
13697;DHT22;6920;50.080;8.226;2023-07-09T07:37:56;29.80;92.60
13697;DHT22;6920;50.080;8.226;2023-07-09T07:40:30;30.30;91.30
13697;DHT22;6920;50.080;8.226;2023-07-09T07:43:14;30.40;90.50
13697;DHT22;6920;50.080;8.226;2023-07-09T07:45:44;30.40;90.50
13697;DHT22;6920;50.080;8.226;2023-07-09T07:48:13;30.70;90.40
13697;DHT22;6920;50.080;8.226;2023-07-09T07:50:41;30.80;89.40
13697;DHT22;6920;50.080;8.226;2023-07-09T07:53:12;30.70;90.20
13697;DHT22;6920;50.080;8.226;2023-07-09T07:55:43;30.60;90.00
13697;DHT22;6920;50.080;8.226;2023-07-09T07:58:12;31.20;88.60
13697;DHT22;6920;50.080;8.226;2023-07-09T08:00:43;31.40;87.50
13697;DHT22;6920;50.080;8.226;2023-07-09T08:03:10;31.80;86.70
13697;DHT22;6920;50.080;8.226;2023-07-09T08:08:09;31.90;85.80
13697;DHT22;6920;50.080;8.226;2023-07-09T08:10:46;31.90;85.30
13697;DHT22;6920;50.080;8.226;2023-07-09T08:13:17;32.10;85.10
13697;DHT22;6920;50.080;8.226;2023-07-09T08:15:45;31.90;85.80
13697;DHT22;6920;50.080;8.226;2023-07-09T08:18:18;31.80;87.30
13697;DHT22;6920;50.080;8.226;2023-07-09T08:20:52;32.00;86.40
13697;DHT22;6920;50.080;8.226;2023-07-09T08:23:23;32.10;86.00
13697;DHT22;6920;50.080;8.226;2023-07-09T08:26:01;32.10;86.10
13697;DHT22;6920;50.080;8.226;2023-07-09T08:28:35;32.30;85.80
13697;DHT22;6920;50.080;8.226;2023-07-09T08:31:02;32.30;85.60
13697;DHT22;6920;50.080;8.226;2023-07-09T08:33:34;32.50;85.10
13697;DHT22;6920;50.080;8.226;2023-07-09T08:36:23;32.90;84.60
13697;DHT22;6920;50.080;8.226;2023-07-09T08:41:32;32.70;83.80
13697;DHT22;6920;50.080;8.226;2023-07-09T08:44:22;32.90;83.80
13697;DHT22;6920;50.080;8.226;2023-07-09T08:47:00;33.30;82.40
13697;DHT22;6920;50.080;8.226;2023-07-09T08:49:38;33.30;82.70
13697;DHT22;6920;50.080;8.226;2023-07-09T08:52:13;33.50;82.00
13697;DHT22;6920;50.080;8.226;2023-07-09T08:54:44;32.90;82.40
13697;DHT22;6920;50.080;8.226;2023-07-09T08:57:20;33.40;82.30
13697;DHT22;6920;50.080;8.226;2023-07-09T08:59:50;33.70;81.80
13697;DHT22;6920;50.080;8.226;2023-07-09T09:02:30;33.70;81.40
13697;DHT22;6920;50.080;8.226;2023-07-09T09:05:03;33.60;81.20
13697;DHT22;6920;50.080;8.226;2023-07-09T09:07:42;33.70;81.60
13697;DHT22;6920;50.080;8.226;2023-07-09T09:10:14;34.10;80.70
13697;DHT22;6920;50.080;8.226;2023-07-09T09:13:05;34.20;81.10
13697;DHT22;6920;50.080;8.226;2023-07-09T09:15:39;34.30;80.20
13697;DHT22;6920;50.080;8.226;2023-07-09T09:18:20;34.00;79.80
13697;DHT22;6920;50.080;8.226;2023-07-09T09:21:09;34.10;81.10
13697;DHT22;6920;50.080;8.226;2023-07-09T09:23:40;34.20;81.20
13697;DHT22;6920;50.080;8.226;2023-07-09T09:26:17;34.50;80.90
13697;DHT22;6920;50.080;8.226;2023-07-09T09:28:48;34.60;80.60
13697;DHT22;6920;50.080;8.226;2023-07-09T09:31:20;34.70;80.20
13697;DHT22;6920;50.080;8.226;2023-07-09T09:33:49;34.40;82.00
13697;DHT22;6920;50.080;8.226;2023-07-09T09:36:19;34.20;79.80
13697;DHT22;6920;50.080;8.226;2023-07-09T09:38:47;34.40;81.20
13697;DHT22;6920;50.080;8.226;2023-07-09T09:41:20;34.80;78.90
13697;DHT22;6920;50.080;8.226;2023-07-09T09:43:53;34.80;79.40
13697;DHT22;6920;50.080;8.226;2023-07-09T09:46:24;35.10;80.00
13697;DHT22;6920;50.080;8.226;2023-07-09T09:48:58;35.40;78.10
13697;DHT22;6920;50.080;8.226;2023-07-09T09:52:01;35.50;78.40
13697;DHT22;6920;50.080;8.226;2023-07-09T09:57:17;35.20;77.90
13697;DHT22;6920;50.080;8.226;2023-07-09T09:59:49;35.30;77.30
13697;DHT22;6920;50.080;8.226;2023-07-09T10:02:18;35.50;76.10
13697;DHT22;6920;50.080;8.226;2023-07-09T10:04:48;35.50;76.20
13697;DHT22;6920;50.080;8.226;2023-07-09T10:07:22;35.80;75.90
13697;DHT22;6920;50.080;8.226;2023-07-09T10:09:53;35.70;76.70
13697;DHT22;6920;50.080;8.226;2023-07-09T10:12:36;35.80;74.90
13697;DHT22;6920;50.080;8.226;2023-07-09T10:15:21;35.70;74.50
13697;DHT22;6920;50.080;8.226;2023-07-09T10:18:01;35.80;74.00
13697;DHT22;6920;50.080;8.226;2023-07-09T10:20:35;35.50;75.30
13697;DHT22;6920;50.080;8.226;2023-07-09T10:23:13;35.70;74.00
13697;DHT22;6920;50.080;8.226;2023-07-09T10:25:51;35.90;74.10
13697;DHT22;6920;50.080;8.226;2023-07-09T10:31:29;35.30;75.20
13697;DHT22;6920;50.080;8.226;2023-07-09T10:34:24;35.60;74.60
13697;DHT22;6920;50.080;8.226;2023-07-09T10:37:32;36.00;73.90
13697;DHT22;6920;50.080;8.226;2023-07-09T10:40:03;35.80;74.10
13697;DHT22;6920;50.080;8.226;2023-07-09T10:45:08;35.60;73.30
13697;DHT22;6920;50.080;8.226;2023-07-09T10:47:43;36.00;73.20
13697;DHT22;6920;50.080;8.226;2023-07-09T10:50:15;36.60;72.30
13697;DHT22;6920;50.080;8.226;2023-07-09T10:52:45;37.10;73.00
13697;DHT22;6920;50.080;8.226;2023-07-09T10:55:17;37.10;71.30
13697;DHT22;6920;50.080;8.226;2023-07-09T10:57:54;36.30;72.10
13697;DHT22;6920;50.080;8.226;2023-07-09T11:00:34;36.40;71.80
13697;DHT22;6920;50.080;8.226;2023-07-09T11:03:09;36.30;71.80
13697;DHT22;6920;50.080;8.226;2023-07-09T11:05:42;37.00;70.00
13697;DHT22;6920;50.080;8.226;2023-07-09T11:08:12;37.00;69.70
13697;DHT22;6920;50.080;8.226;2023-07-09T11:10:44;36.10;69.70
13697;DHT22;6920;50.080;8.226;2023-07-09T11:13:16;35.90;70.60
13697;DHT22;6920;50.080;8.226;2023-07-09T11:15:49;36.60;69.00
13697;DHT22;6920;50.080;8.226;2023-07-09T11:18:24;36.60;68.70
13697;DHT22;6920;50.080;8.226;2023-07-09T11:20:59;37.10;68.50
13697;DHT22;6920;50.080;8.226;2023-07-09T11:23:38;37.30;68.80
13697;DHT22;6920;50.080;8.226;2023-07-09T11:26:13;37.40;67.70
13697;DHT22;6920;50.080;8.226;2023-07-09T11:28:48;37.50;67.10
13697;DHT22;6920;50.080;8.226;2023-07-09T11:31:22;37.90;67.20
13697;DHT22;6920;50.080;8.226;2023-07-09T11:34:00;38.00;67.30
13697;DHT22;6920;50.080;8.226;2023-07-09T11:36:31;38.00;65.90
13697;DHT22;6920;50.080;8.226;2023-07-09T11:39:19;38.20;65.60
13697;DHT22;6920;50.080;8.226;2023-07-09T11:41:47;37.60;68.20
13697;DHT22;6920;50.080;8.226;2023-07-09T11:44:18;37.60;64.80
13697;DHT22;6920;50.080;8.226;2023-07-09T11:47:03;38.00;64.90
13697;DHT22;6920;50.080;8.226;2023-07-09T11:49:47;38.40;63.60
13697;DHT22;6920;50.080;8.226;2023-07-09T11:52:19;38.30;62.60
13697;DHT22;6920;50.080;8.226;2023-07-09T11:54:49;37.90;62.20
13697;DHT22;6920;50.080;8.226;2023-07-09T11:57:18;37.80;63.10
13697;DHT22;6920;50.080;8.226;2023-07-09T11:59:45;37.80;64.30
13697;DHT22;6920;50.080;8.226;2023-07-09T12:02:16;37.90;63.70
13697;DHT22;6920;50.080;8.226;2023-07-09T12:04:48;38.10;62.20
13697;DHT22;6920;50.080;8.226;2023-07-09T12:07:16;38.30;61.10
13697;DHT22;6920;50.080;8.226;2023-07-09T12:09:48;38.10;59.80
13697;DHT22;6920;50.080;8.226;2023-07-09T12:12:20;38.10;61.00
13697;DHT22;6920;50.080;8.226;2023-07-09T12:14:51;38.20;60.90
13697;DHT22;6920;50.080;8.226;2023-07-09T12:17:22;38.50;62.10
13697;DHT22;6920;50.080;8.226;2023-07-09T12:19:54;38.60;61.40
13697;DHT22;6920;50.080;8.226;2023-07-09T12:22:22;38.20;62.10
13697;DHT22;6920;50.080;8.226;2023-07-09T12:24:51;38.40;60.60
13697;DHT22;6920;50.080;8.226;2023-07-09T12:27:25;38.20;59.90
13697;DHT22;6920;50.080;8.226;2023-07-09T12:29:56;38.30;59.90
13697;DHT22;6920;50.080;8.226;2023-07-09T12:32:24;38.50;59.50
13697;DHT22;6920;50.080;8.226;2023-07-09T12:34:55;38.80;58.30
13697;DHT22;6920;50.080;8.226;2023-07-09T12:37:25;38.80;58.00
13697;DHT22;6920;50.080;8.226;2023-07-09T12:39:59;38.90;58.00
13697;DHT22;6920;50.080;8.226;2023-07-09T12:42:30;38.80;57.80
13697;DHT22;6920;50.080;8.226;2023-07-09T12:44:59;38.40;58.20
13697;DHT22;6920;50.080;8.226;2023-07-09T12:47:27;38.50;58.40
13697;DHT22;6920;50.080;8.226;2023-07-09T12:50:10;38.40;58.70
13697;DHT22;6920;50.080;8.226;2023-07-09T12:52:47;38.50;58.60
13697;DHT22;6920;50.080;8.226;2023-07-09T12:55:25;38.00;59.20
13697;DHT22;6920;50.080;8.226;2023-07-09T12:57:56;38.10;58.80
13697;DHT22;6920;50.080;8.226;2023-07-09T13:00:29;37.80;59.00
13697;DHT22;6920;50.080;8.226;2023-07-09T13:02:59;38.30;58.10
13697;DHT22;6920;50.080;8.226;2023-07-09T13:05:29;38.60;58.00
13697;DHT22;6920;50.080;8.226;2023-07-09T13:08:00;38.80;57.10
13697;DHT22;6920;50.080;8.226;2023-07-09T13:10:29;38.80;57.70
13697;DHT22;6920;50.080;8.226;2023-07-09T13:13:00;38.70;57.10
13697;DHT22;6920;50.080;8.226;2023-07-09T13:15:30;38.50;57.00
13697;DHT22;6920;50.080;8.226;2023-07-09T13:17:58;38.40;56.40
13697;DHT22;6920;50.080;8.226;2023-07-09T13:20:26;37.80;56.40
13697;DHT22;6920;50.080;8.226;2023-07-09T13:22:55;37.60;56.70
13697;DHT22;6920;50.080;8.226;2023-07-09T13:27:53;38.30;56.20
13697;DHT22;6920;50.080;8.226;2023-07-09T13:30:21;38.20;55.50
13697;DHT22;6920;50.080;8.226;2023-07-09T13:32:51;38.40;55.60
13697;DHT22;6920;50.080;8.226;2023-07-09T13:35:19;38.60;55.90
13697;DHT22;6920;50.080;8.226;2023-07-09T13:37:48;38.70;55.20
13697;DHT22;6920;50.080;8.226;2023-07-09T13:40:17;38.90;55.20
13697;DHT22;6920;50.080;8.226;2023-07-09T13:42:48;38.80;55.30
13697;DHT22;6920;50.080;8.226;2023-07-09T13:45:22;38.90;55.40
13697;DHT22;6920;50.080;8.226;2023-07-09T13:47:51;39.10;55.40
13697;DHT22;6920;50.080;8.226;2023-07-09T13:50:20;38.80;53.70
13697;DHT22;6920;50.080;8.226;2023-07-09T13:52:49;38.90;53.70
13697;DHT22;6920;50.080;8.226;2023-07-09T13:55:22;38.70;53.90
13697;DHT22;6920;50.080;8.226;2023-07-09T13:57:50;38.50;52.90
13697;DHT22;6920;50.080;8.226;2023-07-09T14:00:20;38.30;53.00
13697;DHT22;6920;50.080;8.226;2023-07-09T14:02:50;38.30;52.70
13697;DHT22;6920;50.080;8.226;2023-07-09T14:05:18;38.00;53.40
13697;DHT22;6920;50.080;8.226;2023-07-09T14:07:46;37.90;51.50
13697;DHT22;6920;50.080;8.226;2023-07-09T14:10:14;38.00;51.80
13697;DHT22;6920;50.080;8.226;2023-07-09T14:12:47;38.10;52.00
13697;DHT22;6920;50.080;8.226;2023-07-09T14:15:17;38.10;52.20
13697;DHT22;6920;50.080;8.226;2023-07-09T14:17:45;38.10;52.90
13697;DHT22;6920;50.080;8.226;2023-07-09T14:20:15;38.00;52.50
13697;DHT22;6920;50.080;8.226;2023-07-09T14:22:50;37.90;52.40
13697;DHT22;6920;50.080;8.226;2023-07-09T14:25:22;38.00;52.20
13697;DHT22;6920;50.080;8.226;2023-07-09T14:27:52;37.70;51.60
13697;DHT22;6920;50.080;8.226;2023-07-09T14:30:22;37.80;51.70
13697;DHT22;6920;50.080;8.226;2023-07-09T14:32:51;37.70;51.50
13697;DHT22;6920;50.080;8.226;2023-07-09T14:35:23;37.70;51.20
13697;DHT22;6920;50.080;8.226;2023-07-09T14:37:53;37.60;51.50
13697;DHT22;6920;50.080;8.226;2023-07-09T14:40:21;37.40;51.50
13697;DHT22;6920;50.080;8.226;2023-07-09T14:42:52;37.40;52.00
13697;DHT22;6920;50.080;8.226;2023-07-09T14:45:22;37.30;51.90
13697;DHT22;6920;50.080;8.226;2023-07-09T14:47:51;37.40;52.20
13697;DHT22;6920;50.080;8.226;2023-07-09T14:50:19;37.30;51.70
13697;DHT22;6920;50.080;8.226;2023-07-09T14:52:51;37.20;51.20
13697;DHT22;6920;50.080;8.226;2023-07-09T14:55:24;36.90;51.30
13697;DHT22;6920;50.080;8.226;2023-07-09T14:57:53;36.80;51.80
13697;DHT22;6920;50.080;8.226;2023-07-09T15:00:24;36.80;51.70
13697;DHT22;6920;50.080;8.226;2023-07-09T15:02:53;36.70;51.40
13697;DHT22;6920;50.080;8.226;2023-07-09T15:05:25;36.70;51.00
13697;DHT22;6920;50.080;8.226;2023-07-09T15:07:56;36.70;50.80
13697;DHT22;6920;50.080;8.226;2023-07-09T15:10:27;36.70;50.20
13697;DHT22;6920;50.080;8.226;2023-07-09T15:12:59;36.50;50.50
13697;DHT22;6920;50.080;8.226;2023-07-09T15:15:28;36.40;50.80
13697;DHT22;6920;50.080;8.226;2023-07-09T15:18:08;36.30;51.00
13697;DHT22;6920;50.080;8.226;2023-07-09T15:20:43;36.30;51.20
13697;DHT22;6920;50.080;8.226;2023-07-09T15:23:12;36.20;51.50
13697;DHT22;6920;50.080;8.226;2023-07-09T15:25:43;36.20;51.90
13697;DHT22;6920;50.080;8.226;2023-07-09T15:28:21;36.10;52.00
13697;DHT22;6920;50.080;8.226;2023-07-09T15:30:51;36.00;52.10
13697;DHT22;6920;50.080;8.226;2023-07-09T15:33:19;35.80;51.90
13697;DHT22;6920;50.080;8.226;2023-07-09T15:35:49;35.80;51.60
13697;DHT22;6920;50.080;8.226;2023-07-09T15:38:26;35.70;51.80
13697;DHT22;6920;50.080;8.226;2023-07-09T15:40:54;35.50;51.20
13697;DHT22;6920;50.080;8.226;2023-07-09T15:43:24;35.40;51.30
13697;DHT22;6920;50.080;8.226;2023-07-09T15:45:56;35.20;51.20
13697;DHT22;6920;50.080;8.226;2023-07-09T15:48:30;35.10;51.40
13697;DHT22;6920;50.080;8.226;2023-07-09T15:50:58;35.10;51.70
13697;DHT22;6920;50.080;8.226;2023-07-09T15:53:27;35.00;52.10
13697;DHT22;6920;50.080;8.226;2023-07-09T15:56:08;34.90;51.80
13697;DHT22;6920;50.080;8.226;2023-07-09T15:58:45;34.80;52.00
13697;DHT22;6920;50.080;8.226;2023-07-09T16:01:18;34.70;52.20
13697;DHT22;6920;50.080;8.226;2023-07-09T16:03:49;34.50;55.90
13697;DHT22;6920;50.080;8.226;2023-07-09T16:06:20;34.10;58.10
13697;DHT22;6920;50.080;8.226;2023-07-09T16:08:48;33.90;59.10
13697;DHT22;6920;50.080;8.226;2023-07-09T16:11:20;33.50;60.70
13697;DHT22;6920;50.080;8.226;2023-07-09T16:13:50;33.10;63.10
13697;DHT22;6920;50.080;8.226;2023-07-09T16:16:22;32.80;64.10
13697;DHT22;6920;50.080;8.226;2023-07-09T16:18:51;32.60;65.50
13697;DHT22;6920;50.080;8.226;2023-07-09T16:21:24;32.30;66.80
13697;DHT22;6920;50.080;8.226;2023-07-09T16:23:53;32.00;68.20
13697;DHT22;6920;50.080;8.226;2023-07-09T16:26:21;31.80;69.20
13697;DHT22;6920;50.080;8.226;2023-07-09T16:28:52;31.70;69.70
13697;DHT22;6920;50.080;8.226;2023-07-09T16:31:20;31.60;70.00
13697;DHT22;6920;50.080;8.226;2023-07-09T16:33:47;31.50;70.60
13697;DHT22;6920;50.080;8.226;2023-07-09T16:36:18;31.40;70.90
13697;DHT22;6920;50.080;8.226;2023-07-09T16:38:48;31.30;71.10
13697;DHT22;6920;50.080;8.226;2023-07-09T16:41:21;31.30;71.60
13697;DHT22;6920;50.080;8.226;2023-07-09T16:44:01;31.10;72.20
13697;DHT22;6920;50.080;8.226;2023-07-09T16:46:28;30.90;72.90
13697;DHT22;6920;50.080;8.226;2023-07-09T16:48:58;30.70;73.60
13697;DHT22;6920;50.080;8.226;2023-07-09T16:51:27;30.40;74.00
13697;DHT22;6920;50.080;8.226;2023-07-09T16:54:10;30.30;74.70
13697;DHT22;6920;50.080;8.226;2023-07-09T16:59:09;30.20;75.30
13697;DHT22;6920;50.080;8.226;2023-07-09T17:01:37;30.30;75.20
13697;DHT22;6920;50.080;8.226;2023-07-09T17:04:20;30.10;75.20
13697;DHT22;6920;50.080;8.226;2023-07-09T17:06:49;30.00;75.30